createdAt,value
2023-08-17T00:00:15.055Z,4.80
2023-08-17T00:03:08.736Z,5.20
2023-08-17T00:05:42.273Z,5.00
2023-08-17T00:08:15.331Z,5.30
2023-08-17T00:10:49.159Z,5.00
2023-08-17T00:13:22.086Z,5.40
2023-08-17T00:15:55.186Z,5.30
2023-08-17T00:18:28.299Z,5.70
2023-08-17T00:21:01.678Z,6.00
2023-08-17T00:23:34.797Z,6.00
2023-08-17T00:26:07.912Z,5.90
2023-08-17T00:28:41.366Z,5.60
2023-08-17T00:31:14.413Z,6.20
2023-08-17T00:33:47.566Z,6.20
2023-08-17T00:36:20.575Z,6.10
2023-08-17T00:38:53.889Z,6.10
2023-08-17T00:41:27.043Z,5.60
2023-08-17T00:44:00.300Z,6.30
2023-08-17T00:46:34.119Z,5.70
2023-08-17T00:49:08.275Z,4.00
2023-08-17T00:51:42.360Z,4.90
2023-08-17T00:54:18.169Z,3.90
2023-08-17T00:56:51.298Z,3.20
2023-08-17T00:59:24.853Z,2.70
2023-08-17T01:01:58.184Z,3.30
2023-08-17T01:04:31.348Z,3.00
2023-08-17T01:07:04.415Z,3.10
2023-08-17T01:09:37.630Z,4.70
2023-08-17T01:12:20.064Z,3.60
2023-08-17T01:15:03.174Z,4.50
2023-08-17T01:17:45.031Z,3.00
2023-08-17T01:20:19.216Z,3.80
2023-08-17T01:22:59.088Z,4.80
2023-08-17T01:25:32.084Z,5.30
2023-08-17T01:28:05.994Z,6.20
2023-08-17T01:30:47.180Z,5.50
2023-08-17T01:33:28.091Z,4.60
2023-08-17T01:36:13.805Z,4.30
2023-08-17T01:38:49.039Z,4.90
2023-08-17T01:41:23.388Z,4.80
2023-08-17T01:43:57.270Z,5.10
2023-08-17T01:46:35.216Z,4.80
2023-08-17T01:49:09.025Z,5.30
2023-08-17T01:51:41.957Z,5.20
2023-08-17T01:54:15.274Z,5.40
2023-08-17T01:56:48.393Z,5.30
2023-08-17T01:59:21.411Z,4.90
2023-08-17T02:01:54.546Z,5.00
2023-08-17T02:04:28.059Z,4.80
2023-08-17T02:07:01.139Z,4.40
2023-08-17T02:09:34.072Z,4.30
2023-08-17T02:12:09.731Z,4.20
2023-08-17T02:14:42.786Z,4.00
2023-08-17T02:17:17.938Z,3.80
2023-08-17T02:19:51.355Z,4.00
2023-08-17T02:22:24.287Z,3.70
2023-08-17T02:24:57.268Z,3.60
2023-08-17T02:27:32.408Z,4.00
2023-08-17T02:30:05.904Z,2.90
2023-08-17T02:32:38.901Z,3.50
2023-08-17T02:35:13.143Z,2.80
2023-08-17T02:37:46.250Z,3.10
2023-08-17T02:40:19.576Z,3.90
2023-08-17T02:42:52.580Z,3.30
2023-08-17T02:45:25.644Z,3.30
2023-08-17T02:47:58.673Z,3.50
2023-08-17T02:50:31.888Z,3.40
2023-08-17T02:53:05.154Z,3.60
2023-08-17T02:55:38.300Z,3.80
2023-08-17T02:58:11.756Z,3.70
2023-08-17T03:00:45.722Z,3.30
2023-08-17T03:03:18.806Z,3.50
2023-08-17T03:05:51.884Z,4.10
2023-08-17T03:08:24.896Z,3.70
2023-08-17T03:10:57.911Z,3.20
2023-08-17T03:13:31.086Z,3.20
2023-08-17T03:16:04.741Z,3.20
2023-08-17T03:18:38.101Z,3.30
2023-08-17T03:21:11.300Z,3.40
2023-08-17T03:23:44.412Z,3.60
2023-08-17T03:26:17.751Z,3.80
2023-08-17T03:28:51.051Z,4.10
2023-08-17T03:31:25.604Z,4.00
2023-08-17T03:33:58.846Z,3.10
2023-08-17T03:36:31.898Z,3.70
2023-08-17T03:39:05.145Z,3.70
2023-08-17T03:41:38.360Z,4.10
2023-08-17T03:44:12.047Z,4.40
2023-08-17T03:46:45.139Z,4.50
2023-08-17T03:49:18.242Z,4.60
2023-08-17T03:51:51.245Z,4.50
2023-08-17T03:54:24.298Z,3.70
2023-08-17T03:56:57.338Z,4.20
2023-08-17T03:59:30.470Z,3.60
2023-08-17T04:02:03.623Z,3.90
2023-08-17T04:04:36.881Z,4.40
2023-08-17T04:07:09.997Z,4.20
2023-08-17T04:09:47.651Z,3.70
2023-08-17T04:12:20.900Z,3.80
2023-08-17T04:14:53.940Z,3.80
2023-08-17T04:17:27.307Z,4.40
2023-08-17T04:20:00.803Z,4.30
2023-08-17T04:22:33.840Z,3.90
2023-08-17T04:25:08.602Z,3.80
2023-08-17T04:27:41.616Z,4.10
2023-08-17T04:30:16.722Z,4.20
2023-08-17T04:32:56.229Z,4.50
2023-08-17T04:35:29.575Z,3.90
2023-08-17T04:38:02.582Z,3.60
2023-08-17T04:40:35.793Z,4.10
2023-08-17T04:43:09.916Z,4.20
2023-08-17T04:45:43.996Z,4.20
2023-08-17T04:48:17.197Z,4.10
2023-08-17T04:50:50.779Z,4.00
2023-08-17T04:53:25.516Z,3.70
2023-08-17T04:55:58.560Z,3.60
2023-08-17T04:58:31.653Z,3.80
2023-08-17T05:01:04.906Z,3.70
2023-08-17T05:03:38.283Z,3.70
2023-08-17T05:06:11.504Z,6.50
2023-08-17T05:08:44.527Z,6.70
2023-08-17T05:11:17.624Z,8.00
2023-08-17T05:13:51.273Z,4.80
2023-08-17T05:16:24.725Z,4.70
2023-08-17T05:18:59.631Z,4.50
2023-08-17T05:21:33.337Z,5.10
2023-08-17T05:24:07.143Z,4.90
2023-08-17T05:26:40.279Z,4.70
2023-08-17T05:29:13.154Z,4.60
2023-08-17T05:31:46.627Z,4.10
2023-08-17T05:34:19.640Z,3.00
2023-08-17T05:36:52.800Z,3.20
2023-08-17T05:39:25.747Z,2.70
2023-08-17T05:41:58.856Z,3.00
2023-08-17T05:44:32.555Z,3.00
2023-08-17T05:47:05.695Z,2.80
2023-08-17T05:49:39.218Z,2.70
2023-08-17T05:52:12.421Z,2.70
2023-08-17T05:54:45.578Z,2.90
2023-08-17T05:57:18.647Z,3.00
2023-08-17T05:59:51.604Z,2.60
2023-08-17T06:02:24.757Z,3.10
2023-08-17T06:04:57.926Z,3.00
2023-08-17T06:07:31.173Z,3.00
2023-08-17T06:10:05.504Z,2.50
2023-08-17T06:12:38.942Z,2.50
2023-08-17T06:15:14.134Z,3.10
2023-08-17T06:17:47.782Z,3.20
2023-08-17T06:20:21.750Z,2.80
2023-08-17T06:22:55.254Z,2.70
2023-08-17T06:25:29.024Z,3.30
2023-08-17T06:28:02.497Z,2.80
2023-08-17T06:30:37.582Z,3.00
2023-08-17T06:33:11.161Z,2.80
2023-08-17T06:35:44.655Z,3.00
2023-08-17T06:38:18.692Z,3.10
2023-08-17T06:40:53.916Z,3.20
2023-08-17T06:43:27.459Z,2.70
2023-08-17T06:46:01.658Z,3.10
2023-08-17T06:48:35.127Z,2.90
2023-08-17T06:51:08.531Z,2.70
2023-08-17T06:53:41.931Z,2.50
2023-08-17T06:56:16.588Z,2.70
2023-08-17T06:58:50.106Z,2.80
2023-08-17T07:01:23.500Z,3.50
2023-08-17T07:03:57.208Z,2.80
2023-08-17T07:06:31.411Z,2.90
2023-08-17T07:09:06.789Z,2.50
2023-08-17T07:11:40.483Z,2.70
2023-08-17T07:14:14.108Z,3.10
2023-08-17T07:16:47.471Z,3.20
2023-08-17T07:19:25.479Z,3.40
2023-08-17T07:22:04.852Z,2.70
2023-08-17T07:24:38.345Z,2.90
2023-08-17T07:27:11.918Z,2.80
2023-08-17T07:29:45.386Z,3.10
2023-08-17T07:32:19.207Z,3.00
2023-08-17T07:34:52.817Z,2.90
2023-08-17T07:37:32.527Z,2.80
2023-08-17T07:40:06.642Z,3.00
2023-08-17T07:42:40.738Z,3.50
2023-08-17T07:45:15.018Z,2.70
2023-08-17T07:47:48.423Z,2.90
2023-08-17T07:50:22.700Z,3.20
2023-08-17T07:52:56.112Z,2.50
2023-08-17T07:55:29.848Z,2.70
2023-08-17T07:58:03.564Z,2.70
2023-08-17T08:00:37.195Z,2.50
2023-08-17T08:03:11.138Z,3.00
2023-08-17T08:05:44.964Z,3.30
2023-08-17T08:08:18.944Z,2.80
2023-08-17T08:10:52.392Z,2.70
2023-08-17T08:13:25.811Z,3.00
2023-08-17T08:15:59.310Z,3.10
2023-08-17T08:18:32.637Z,2.60
2023-08-17T08:21:06.184Z,3.00
2023-08-17T08:23:39.885Z,3.00
2023-08-17T08:26:13.377Z,3.00
2023-08-17T08:28:46.914Z,2.90
2023-08-17T08:31:20.417Z,3.50
2023-08-17T08:33:54.403Z,2.40
2023-08-17T08:36:28.138Z,2.70
2023-08-17T08:39:01.991Z,3.00
2023-08-17T08:41:35.945Z,2.90
2023-08-17T08:44:10.370Z,2.90
2023-08-17T08:46:47.078Z,2.30
2023-08-17T08:49:25.597Z,2.60
2023-08-17T08:52:02.225Z,2.90
2023-08-17T08:54:37.892Z,2.00
2023-08-17T08:57:18.215Z,2.80
2023-08-17T09:02:32.697Z,2.40
2023-08-17T09:05:07.749Z,2.70
2023-08-17T09:07:42.094Z,2.80
2023-08-17T09:10:17.879Z,2.50
2023-08-17T09:12:51.984Z,3.20
2023-08-17T09:15:25.384Z,2.70
2023-08-17T09:17:59.179Z,2.60
2023-08-17T09:20:47.719Z,2.60
2023-08-17T09:23:24.080Z,2.80
2023-08-17T09:25:59.487Z,2.70
2023-08-17T09:28:32.901Z,2.70
2023-08-17T09:31:07.047Z,2.60
2023-08-17T09:33:45.402Z,2.60
2023-08-17T09:36:22.677Z,2.50
2023-08-17T09:38:58.008Z,2.80
2023-08-17T09:41:31.599Z,3.60
2023-08-17T09:44:05.311Z,2.50
2023-08-17T09:46:38.767Z,2.50
2023-08-17T09:49:12.328Z,2.40
2023-08-17T09:51:48.392Z,2.60
2023-08-17T09:54:28.508Z,2.10
2023-08-17T09:57:02.105Z,2.50
2023-08-17T09:59:39.716Z,2.20
2023-08-17T10:02:21.983Z,2.10
2023-08-17T10:04:59.448Z,2.50
2023-08-17T10:07:36.607Z,2.40
2023-08-17T10:10:11.980Z,2.60
2023-08-17T10:12:51.103Z,2.30
2023-08-17T10:18:05.006Z,3.00
2023-08-17T10:20:43.605Z,2.10
2023-08-17T10:23:20.246Z,2.50
2023-08-17T10:25:54.547Z,2.50
2023-08-17T10:28:28.913Z,2.20
2023-08-17T10:31:02.581Z,2.50
2023-08-17T10:33:35.993Z,2.40
2023-08-17T10:36:10.366Z,2.00
2023-08-17T10:38:43.753Z,2.20
2023-08-17T10:41:18.984Z,2.20
2023-08-17T10:44:02.666Z,2.20
2023-08-17T10:46:40.983Z,2.30
2023-08-17T10:49:30.650Z,2.80
2023-08-17T10:52:11.286Z,2.30
2023-08-17T10:54:45.987Z,2.40
2023-08-17T10:57:39.916Z,2.40
2023-08-17T11:00:28.408Z,2.20
2023-08-17T11:03:03.511Z,2.20
2023-08-17T11:05:48.364Z,2.40
2023-08-17T11:08:30.794Z,2.00
2023-08-17T11:11:07.356Z,2.30
2023-08-17T11:13:42.961Z,2.20
2023-08-17T11:16:19.237Z,2.20
2023-08-17T11:18:52.992Z,2.20
2023-08-17T11:21:26.418Z,2.10
2023-08-17T11:24:01.848Z,1.90
2023-08-17T11:26:36.341Z,2.00
2023-08-17T11:29:10.311Z,1.80
2023-08-17T11:34:24.185Z,2.30
2023-08-17T11:36:59.269Z,2.20
2023-08-17T11:39:40.112Z,1.90
2023-08-17T11:42:20.058Z,2.00
2023-08-17T11:44:54.472Z,2.00
2023-08-17T11:47:32.586Z,1.80
2023-08-17T11:50:19.921Z,2.50
2023-08-17T11:52:54.813Z,2.20
2023-08-17T11:55:28.207Z,2.20
2023-08-17T11:58:01.492Z,2.30
2023-08-17T12:00:39.700Z,2.10
2023-08-17T12:03:15.414Z,2.10
2023-08-17T12:05:50.181Z,1.90
2023-08-17T12:08:23.516Z,2.60
2023-08-17T12:10:57.538Z,2.50
2023-08-17T12:13:38.257Z,1.90
2023-08-17T12:16:19.448Z,2.20
2023-08-17T12:18:54.574Z,2.10
2023-08-17T12:21:30.124Z,2.00
2023-08-17T12:24:06.261Z,2.10
2023-08-17T12:26:43.324Z,1.80
2023-08-17T12:29:16.791Z,2.10
2023-08-17T12:31:50.472Z,2.30
2023-08-17T12:34:23.838Z,2.10
2023-08-17T12:36:57.186Z,2.40
2023-08-17T12:39:30.897Z,2.50
2023-08-17T12:42:04.588Z,2.30
2023-08-17T12:44:38.166Z,2.70
2023-08-17T12:47:11.697Z,2.30
2023-08-17T12:49:45.020Z,2.20
2023-08-17T12:52:18.316Z,2.10
2023-08-17T12:54:52.919Z,2.60
2023-08-17T12:57:28.067Z,2.50
2023-08-17T13:00:01.369Z,2.50
2023-08-17T13:02:35.045Z,2.50
2023-08-17T13:05:09.119Z,3.30
2023-08-17T13:07:42.414Z,2.50
2023-08-17T13:10:15.893Z,2.20
2023-08-17T13:12:49.612Z,2.60
2023-08-17T13:15:23.165Z,2.80
2023-08-17T13:17:56.573Z,2.60
2023-08-17T13:20:29.972Z,2.50
2023-08-17T13:23:03.363Z,2.40
2023-08-17T13:25:36.914Z,2.80
2023-08-17T13:28:10.773Z,2.50
2023-08-17T13:30:44.787Z,2.80
2023-08-17T13:33:19.078Z,3.00
2023-08-17T13:35:54.050Z,2.80
2023-08-17T13:38:27.510Z,2.90
2023-08-17T13:41:01.020Z,2.70
2023-08-17T13:43:34.437Z,3.00
2023-08-17T13:46:08.615Z,2.50
2023-08-17T13:48:42.829Z,3.00
2023-08-17T13:51:16.189Z,3.20
2023-08-17T13:53:49.523Z,3.30
2023-08-17T13:56:23.060Z,3.70
2023-08-17T13:58:56.340Z,2.80
2023-08-17T14:01:29.908Z,3.10
2023-08-17T14:04:05.128Z,2.60
2023-08-17T14:06:38.589Z,2.60
2023-08-17T14:09:11.993Z,2.90
2023-08-17T14:11:45.352Z,2.90
2023-08-17T14:14:19.150Z,2.60
2023-08-17T14:16:52.416Z,2.70
2023-08-17T14:19:25.901Z,2.60
2023-08-17T14:22:02.234Z,2.80
2023-08-17T14:24:35.621Z,2.90
2023-08-17T14:27:09.392Z,2.90
2023-08-17T14:29:47.971Z,2.50
2023-08-17T14:32:21.863Z,2.70
2023-08-17T14:34:55.122Z,2.70
2023-08-17T14:37:28.831Z,2.80
2023-08-17T14:40:02.395Z,2.80
2023-08-17T14:42:35.806Z,2.70
2023-08-17T14:45:11.083Z,2.60
2023-08-17T14:47:44.463Z,5.80
2023-08-17T14:50:17.867Z,3.00
2023-08-17T14:52:51.172Z,2.70
2023-08-17T14:55:24.911Z,2.90
2023-08-17T14:58:03.172Z,2.60
2023-08-17T15:00:37.508Z,2.30
2023-08-17T15:03:11.792Z,2.30
2023-08-17T15:05:45.243Z,1.80
2023-08-17T15:08:18.852Z,1.90
2023-08-17T15:10:53.161Z,1.70
2023-08-17T15:13:26.572Z,1.80
2023-08-17T15:16:00.626Z,2.10
2023-08-17T15:18:34.041Z,2.20
2023-08-17T15:21:07.454Z,2.10
2023-08-17T15:23:41.255Z,2.10
2023-08-17T15:26:14.766Z,2.30
2023-08-17T15:28:48.212Z,2.10
2023-08-17T15:31:21.707Z,2.60
2023-08-17T15:33:54.851Z,3.20
2023-08-17T15:36:28.073Z,3.00
2023-08-17T15:39:01.150Z,4.00
2023-08-17T15:41:34.656Z,5.30
2023-08-17T15:44:08.738Z,4.10
2023-08-17T15:46:42.115Z,3.60
2023-08-17T15:49:15.277Z,4.40
2023-08-17T15:51:48.629Z,4.30
2023-08-17T15:54:33.591Z,4.00
2023-08-17T15:57:09.275Z,4.50
2023-08-17T15:59:42.542Z,4.50
2023-08-17T16:02:15.836Z,4.50
2023-08-17T16:04:48.986Z,3.80
2023-08-17T16:07:22.475Z,4.40
2023-08-17T16:09:55.593Z,3.80
2023-08-17T16:12:30.958Z,4.20
2023-08-17T16:15:04.264Z,3.70
2023-08-17T16:17:37.525Z,3.80
2023-08-17T16:20:13.674Z,3.50
2023-08-17T16:22:47.112Z,3.70
2023-08-17T16:25:20.521Z,3.50
2023-08-17T16:27:53.692Z,2.90
2023-08-17T16:30:27.599Z,3.30
2023-08-17T16:33:00.805Z,2.80
2023-08-17T16:35:34.037Z,3.40
2023-08-17T16:38:07.934Z,3.30
2023-08-17T16:40:40.878Z,3.30
2023-08-17T16:43:13.986Z,3.10
2023-08-17T16:45:46.985Z,3.90
2023-08-17T16:48:24.704Z,3.50
2023-08-17T16:50:58.111Z,3.50
2023-08-17T16:53:31.406Z,3.80
2023-08-17T16:56:05.264Z,3.70
2023-08-17T16:58:38.401Z,3.20
2023-08-17T17:01:15.100Z,3.30
2023-08-17T17:03:48.807Z,3.80
2023-08-17T17:06:22.318Z,3.40
2023-08-17T17:08:55.752Z,3.20
2023-08-17T17:11:29.280Z,3.60
2023-08-17T17:14:02.324Z,3.50
2023-08-17T17:16:35.319Z,3.50
2023-08-17T17:19:08.595Z,4.20
2023-08-17T17:21:42.754Z,3.70
2023-08-17T17:24:15.875Z,4.50
2023-08-17T17:26:56.948Z,4.50
2023-08-17T17:29:30.050Z,3.60
2023-08-17T17:32:03.197Z,4.40
2023-08-17T17:34:36.334Z,4.00
2023-08-17T17:37:09.561Z,4.00
2023-08-17T17:39:42.706Z,3.80
2023-08-17T17:42:15.790Z,4.00
2023-08-17T17:44:48.997Z,4.30
2023-08-17T17:47:22.175Z,4.10
2023-08-17T17:49:55.323Z,4.30
2023-08-17T17:52:29.867Z,4.40
2023-08-17T17:55:03.853Z,4.50
2023-08-17T17:57:38.452Z,4.20
2023-08-17T18:00:14.893Z,3.90
2023-08-17T18:02:49.075Z,4.70
2023-08-17T18:05:24.693Z,5.50
2023-08-17T18:07:59.477Z,5.00
2023-08-17T18:10:35.009Z,4.40
2023-08-17T18:13:08.348Z,4.70
2023-08-17T18:15:43.177Z,5.30
2023-08-17T18:18:16.286Z,5.20
2023-08-17T18:20:49.337Z,5.90
2023-08-17T18:23:22.649Z,4.50
2023-08-17T18:25:56.182Z,5.70
2023-08-17T18:28:29.251Z,5.20
2023-08-17T18:31:02.344Z,4.90
2023-08-17T18:33:35.517Z,5.10
2023-08-17T18:36:09.177Z,5.30
2023-08-17T18:38:42.254Z,4.90
2023-08-17T18:41:15.947Z,5.20
2023-08-17T18:43:49.066Z,5.80
2023-08-17T18:46:22.729Z,5.80
2023-08-17T18:48:55.827Z,6.20
2023-08-17T18:51:28.976Z,5.80
2023-08-17T18:54:02.316Z,5.10
2023-08-17T18:56:35.440Z,5.40
2023-08-17T18:59:08.849Z,5.50
2023-08-17T19:01:42.198Z,5.20
2023-08-17T19:04:15.386Z,5.50
2023-08-17T19:06:48.629Z,5.20
2023-08-17T19:09:21.719Z,5.40
2023-08-17T19:11:54.719Z,5.10
2023-08-17T19:14:27.804Z,5.60
2023-08-17T19:17:01.050Z,4.50
2023-08-17T19:19:34.495Z,5.20
2023-08-17T19:22:07.840Z,5.30
2023-08-17T19:24:44.034Z,4.50
2023-08-17T19:27:17.222Z,4.30
2023-08-17T19:29:50.370Z,4.80
2023-08-17T19:32:23.406Z,4.70
2023-08-17T19:34:56.531Z,5.00
2023-08-17T19:37:32.890Z,5.10
2023-08-17T19:40:07.892Z,5.10
2023-08-17T19:42:41.038Z,5.90
2023-08-17T19:45:15.308Z,5.00
2023-08-17T19:47:48.466Z,4.80
2023-08-17T19:50:21.820Z,4.90
2023-08-17T19:52:54.844Z,4.30
2023-08-17T19:55:28.005Z,4.60
2023-08-17T19:58:01.051Z,4.80
2023-08-17T20:00:34.275Z,5.10
2023-08-17T20:03:07.599Z,4.40
2023-08-17T20:05:41.313Z,4.70
2023-08-17T20:08:14.562Z,4.80
2023-08-17T20:10:47.687Z,5.50
2023-08-17T20:13:20.912Z,6.60
2023-08-17T20:15:58.880Z,6.50
2023-08-17T20:18:31.935Z,6.60
2023-08-17T20:21:06.371Z,5.00
2023-08-17T20:23:41.434Z,5.10
2023-08-17T20:26:14.763Z,5.70
2023-08-17T20:28:47.783Z,5.60
2023-08-17T20:31:20.831Z,5.50
2023-08-17T20:33:55.521Z,5.20
2023-08-17T20:36:28.586Z,5.60
2023-08-17T20:39:09.496Z,6.30
2023-08-17T20:41:42.782Z,6.00
2023-08-17T20:44:16.488Z,5.60
2023-08-17T20:46:49.807Z,5.50
2023-08-17T20:49:22.730Z,6.00
2023-08-17T20:51:55.832Z,5.60
2023-08-17T20:54:28.734Z,6.30
2023-08-17T20:57:02.060Z,6.20
2023-08-17T20:59:35.380Z,5.50
2023-08-17T21:02:08.587Z,5.70
2023-08-17T21:04:41.817Z,4.90
2023-08-17T21:07:15.303Z,6.00
2023-08-17T21:09:48.333Z,5.80
2023-08-17T21:12:21.518Z,6.00
2023-08-17T21:14:55.682Z,5.70
2023-08-17T21:17:30.155Z,5.50
2023-08-17T21:20:04.241Z,5.70
2023-08-17T21:22:39.801Z,5.30
2023-08-17T21:25:14.227Z,5.40
2023-08-17T21:27:47.755Z,5.10
2023-08-17T21:30:22.413Z,4.60
2023-08-17T21:32:55.789Z,4.60
2023-08-17T21:35:29.091Z,5.30
2023-08-17T21:38:02.360Z,5.10
2023-08-17T21:40:35.715Z,6.10
2023-08-17T21:43:09.010Z,5.60
2023-08-17T21:45:42.437Z,5.00
2023-08-17T21:48:15.539Z,5.80
2023-08-17T21:50:48.551Z,6.30
2023-08-17T21:53:24.034Z,5.50
2023-08-17T21:55:57.504Z,4.80
2023-08-17T21:58:30.603Z,5.40
2023-08-17T22:01:03.762Z,4.90
2023-08-17T22:03:36.827Z,5.20
2023-08-17T22:06:10.504Z,5.40
2023-08-17T22:08:43.771Z,5.00
2023-08-17T22:11:16.884Z,5.60
2023-08-17T22:13:50.164Z,5.70
2023-08-17T22:16:23.230Z,5.30
2023-08-17T22:18:59.659Z,5.90
2023-08-17T22:21:33.109Z,5.00
2023-08-17T22:24:06.655Z,5.10
2023-08-17T22:26:39.720Z,4.90
2023-08-17T22:29:12.831Z,5.30
2023-08-17T22:31:45.881Z,6.30
2023-08-17T22:34:18.892Z,5.70
2023-08-17T22:36:51.981Z,5.70
2023-08-17T22:39:25.139Z,5.30
2023-08-17T22:41:58.475Z,5.20
2023-08-17T22:44:31.787Z,5.20
2023-08-17T22:47:05.714Z,5.70
2023-08-17T22:49:38.840Z,5.10
2023-08-17T22:52:11.920Z,6.00
2023-08-17T22:54:45.107Z,5.90
2023-08-17T22:57:18.166Z,5.80
2023-08-17T22:59:51.238Z,6.00
2023-08-17T23:02:24.418Z,5.80
2023-08-17T23:04:57.536Z,5.50
2023-08-17T23:07:30.812Z,6.60
2023-08-17T23:10:04.181Z,6.00
2023-08-17T23:12:37.254Z,5.80
2023-08-17T23:15:12.017Z,6.20
2023-08-17T23:17:45.691Z,6.50
2023-08-17T23:20:19.040Z,6.30
2023-08-17T23:22:52.210Z,6.30
2023-08-17T23:25:26.579Z,6.00
2023-08-17T23:27:59.666Z,6.30
2023-08-17T23:30:32.850Z,5.70
2023-08-17T23:33:06.735Z,6.40
2023-08-17T23:35:41.089Z,6.60
2023-08-17T23:38:14.664Z,6.80
2023-08-17T23:40:47.866Z,6.70
2023-08-17T23:43:20.976Z,6.20
2023-08-17T23:45:53.994Z,6.50
2023-08-17T23:48:27.129Z,6.70
2023-08-17T23:51:00.563Z,6.50
2023-08-17T23:53:33.735Z,7.00
2023-08-17T23:56:06.956Z,7.60
2023-08-17T23:58:40.001Z,6.30
